»·PEaware :: N9273T KSNA-KMYF

N9273T :: KSNA-KMYF

FLIGHT INFORMATION

Flight Status: Arrived
Operator: Privately registered:
United States
More flights under this callsign
Pilot: Jim L. (28297)
Aircraft: CESSNA 210 CENTURION
(C210)
More flights by this aircraft type
Origin: KSNA John Wayne-Orange Co
United States
Destination: KMYF Montgomery
United States
More flights between these airports :: More routes between these airports
Route: +V23 MZB
File this flight plan on PilotEdge
Remarks: TEC route CSTP31 Sim has been freezing
Altitude:
(Current/Filed)
5,000ft
Speed:
(Current/Filed)
140kts
Departed: 02-Jul-20 07:27 PM
Arrived: 02-Jul-20 08:09 PM
Distance/Time
Traveled:
63nm/0:42
Distance/Time
To Go:
Arrived

Flight Plot

Page will automatically refresh every two minutes.


Map Options




Map Legend


Flown Route
Filed Route
Departure Airport
Arrival Airport
Navaid (VOR, NDB)
Fix

Horizontal Profiles

Position Reports

Time Latitude Longitude Heading Altitude Ground
Speed
02-Jul-20 19:11 33.673760 -117.872436 297 60ft 0kts
02-Jul-20 19:12 33.673760 -117.872436 297 60ft 0kts
02-Jul-20 19:13 33.673760 -117.872436 297 60ft 0kts
02-Jul-20 19:14 33.673760 -117.872436 297 60ft 0kts
02-Jul-20 19:15 33.673760 -117.872436 297 60ft 0kts
02-Jul-20 19:16 33.673760 -117.872436 297 60ft 0kts
02-Jul-20 19:17 33.673760 -117.872436 297 60ft 0kts
02-Jul-20 19:18 33.673760 -117.872436 297 60ft 0kts
02-Jul-20 19:19 33.673760 -117.872436 297 60ft 0kts
02-Jul-20 19:20 33.673760 -117.872436 297 60ft 0kts
02-Jul-20 19:21 33.673760 -117.872436 297 60ft 0kts
02-Jul-20 19:22 33.673761 -117.872439 297 60ft 0kts
02-Jul-20 19:23 33.674594 -117.871096 43 60ft 8kts
02-Jul-20 19:24 33.678944 -117.868268 28 60ft 24kts
02-Jul-20 19:25 33.681246 -117.866541 116 60ft 0kts
02-Jul-20 19:26 33.672686 -117.870737 210 232ft 84kts
02-Jul-20 19:27 33.648337 -117.879806 189 1534ft 96kts
02-Jul-20 19:28 33.621243 -117.884986 189 2726ft 99kts
02-Jul-20 19:29 33.601017 -117.870654 110 3886ft 109kts
02-Jul-20 19:30 33.592146 -117.833152 113 4866ft 120kts
02-Jul-20 19:31 33.579259 -117.789817 107 5022ft 152kts
02-Jul-20 19:32 33.543774 -117.768522 144 5019ft 152kts
02-Jul-20 19:33 33.512030 -117.734480 137 5018ft 153kts
02-Jul-20 19:34 33.481347 -117.698565 137 4997ft 155kts
02-Jul-20 19:35 33.450646 -117.662592 137 4990ft 154kts
02-Jul-20 19:36 33.420079 -117.626819 137 4990ft 153kts
02-Jul-20 19:37 33.389451 -117.591010 137 4990ft 153kts
02-Jul-20 19:38 33.358856 -117.555274 137 4990ft 153kts
02-Jul-20 19:39 33.328246 -117.519560 137 4989ft 152kts
02-Jul-20 19:41 33.298459 -117.484835 137 4990ft 149kts
02-Jul-20 19:42 33.268805 -117.450217 137 4990ft 148kts
02-Jul-20 19:43 33.238411 -117.416901 155 4988ft 147kts
02-Jul-20 19:44 33.201635 -117.401389 160 4990ft 147kts
02-Jul-20 19:45 33.163234 -117.384952 161 4990ft 146kts
02-Jul-20 19:46 33.124674 -117.368722 161 4990ft 146kts
02-Jul-20 19:47 33.086188 -117.352549 161 4990ft 146kts
02-Jul-20 19:48 33.047671 -117.336370 161 4980ft 147kts
02-Jul-20 19:49 33.009266 -117.320254 161 4980ft 146kts
02-Jul-20 19:50 32.970700 -117.303891 161 4980ft 146kts
02-Jul-20 19:51 32.932321 -117.287831 162 4980ft 146kts
02-Jul-20 19:52 32.909584 -117.251536 103 4981ft 151kts
02-Jul-20 19:53 32.902006 -117.202106 102 4980ft 151kts
02-Jul-20 19:54 32.894495 -117.152661 102 4982ft 152kts
02-Jul-20 19:55 32.883357 -117.104385 111 4982ft 151kts
02-Jul-20 19:56 32.869509 -117.057138 111 4982ft 151kts
02-Jul-20 19:57 32.855631 -117.009845 111 4982ft 151kts
02-Jul-20 19:58 32.838872 -116.964273 121 4982ft 150kts
02-Jul-20 19:59 32.818087 -116.921262 122 4982ft 150kts
02-Jul-20 19:59 32.800502 -116.885431 122 4982ft 150kts
02-Jul-20 20:01 32.760909 -116.873622 209 4368ft 153kts
02-Jul-20 20:01 32.738664 -116.904834 257 3617ft 156kts
02-Jul-20 20:02 32.742422 -116.950768 286 3476ft 128kts
02-Jul-20 20:04 32.760043 -116.997597 292 2938ft 146kts
02-Jul-20 20:04 32.774992 -117.035298 292 2264ft 154kts
02-Jul-20 20:05 32.789249 -117.071254 290 1608ft 91kts
02-Jul-20 20:06 32.799956 -117.098524 290 1111ft 91kts
02-Jul-20 20:07 32.809342 -117.122245 288 651ft 72kts
02-Jul-20 20:08 32.816876 -117.141738 309 427ft 33kts
02-Jul-20 20:09 32.817459 -117.145011 210 427ft 0kts
02-Jul-20 20:10 32.815614 -117.146051 200 427ft 0kts
02-Jul-20 20:11 32.814380 -117.144594 65 427ft 14kts
02-Jul-20 20:12 32.813582 -117.140727 23 427ft 4kts

Navigation Log

Ident Type
Flight plan parsing failed, navigation log unavailable